»·PEaware :: DAL433 KLAX-KDEN

DAL433 :: KLAX-KDEN

FLIGHT INFORMATION

Flight Status: Arrived
Operator:
Delta Air Lines
More flights by this operator :: More flights under this callsign
Pilot: Andrew G. (414)
Aircraft: MCDONNELL-DOUGLAS MD-88
(MD88)
More flights by this aircraft type
Origin: KLAX Los Angeles Intl
United States
Destination: KDEN Denver Intl
United States
More flights between these airports :: More routes between these airports
Route: ORCKA4 LAS J146 DICEE BUMMP SSKII1
File this flight plan on PilotEdge
Remarks: RMK / SIMBRIEF
Altitude:
(Current/Filed)
33,000ft
Speed:
(Current/Filed)
441kts
Departed: 01-Sep-20 08:18 PM
Arrived: 01-Sep-20 10:28 PM
Distance/Time
Traveled:
747nm/2:10
Distance/Time
To Go:
Arrived

Flight Plot

Page will automatically refresh every two minutes.

Flight plan parsing failed; only flown route is shown


Map Options




Map Legend


Flown Route
Filed Route
Departure Airport
Arrival Airport
Navaid (VOR, NDB)
Fix

Horizontal Profiles

Position Reports

Time Latitude Longitude Heading Altitude Ground
Speed
01-Sep-20 19:10 33.947219 -118.403530 227 135ft 0kts
01-Sep-20 19:11 33.947219 -118.403530 227 135ft 0kts
01-Sep-20 19:12 33.947219 -118.403530 227 135ft 0kts
01-Sep-20 19:13 33.947219 -118.403530 227 135ft 0kts
01-Sep-20 19:14 33.947219 -118.403530 227 135ft 0kts
01-Sep-20 19:15 33.947219 -118.403530 227 135ft 0kts
01-Sep-20 19:16 33.947219 -118.403530 227 135ft 0kts
01-Sep-20 19:17 33.947219 -118.403530 227 135ft 0kts
01-Sep-20 19:18 33.947219 -118.403530 227 135ft 0kts
01-Sep-20 19:23 33.947219 -118.403530 227 135ft 0kts
01-Sep-20 19:24 33.947219 -118.403530 227 135ft 0kts
01-Sep-20 19:25 33.947219 -118.403530 227 135ft 0kts
01-Sep-20 19:26 33.947219 -118.403530 227 135ft 0kts
01-Sep-20 19:27 33.947219 -118.403530 227 135ft 0kts
01-Sep-20 19:28 33.947219 -118.403530 227 135ft 0kts
01-Sep-20 19:29 33.947219 -118.403530 227 135ft 0kts
01-Sep-20 19:30 33.947219 -118.403530 227 135ft 0kts
01-Sep-20 19:31 33.947219 -118.403530 227 135ft 0kts
01-Sep-20 19:32 33.947219 -118.403530 227 135ft 0kts
01-Sep-20 19:33 33.947219 -118.403530 227 135ft 0kts
01-Sep-20 19:34 33.947219 -118.403530 227 135ft 0kts
01-Sep-20 19:35 33.947219 -118.403530 227 135ft 0kts
01-Sep-20 19:36 33.947219 -118.403530 227 135ft 0kts
01-Sep-20 19:37 33.947219 -118.403530 227 135ft 0kts
01-Sep-20 19:38 33.947219 -118.403530 227 135ft 0kts
01-Sep-20 19:39 33.947219 -118.403530 227 135ft 0kts
01-Sep-20 19:40 33.947219 -118.403530 227 135ft 0kts
01-Sep-20 19:41 33.947219 -118.403530 227 135ft 0kts
01-Sep-20 19:42 33.947219 -118.403530 227 135ft 0kts
01-Sep-20 19:43 33.947219 -118.403530 227 135ft 0kts
01-Sep-20 19:44 33.947219 -118.403530 227 135ft 0kts
01-Sep-20 19:45 33.947219 -118.403530 227 135ft 0kts
01-Sep-20 19:46 33.947219 -118.403530 227 135ft 0kts
01-Sep-20 19:47 33.947219 -118.403530 227 135ft 0kts
01-Sep-20 19:48 33.947219 -118.403530 227 135ft 0kts
01-Sep-20 19:49 33.947219 -118.403530 227 135ft 0kts
01-Sep-20 19:50 33.947219 -118.403530 227 135ft 0kts
01-Sep-20 19:51 33.947219 -118.403530 227 135ft 0kts
01-Sep-20 19:52 33.947219 -118.403530 227 135ft 0kts
01-Sep-20 19:53 33.947219 -118.403530 227 135ft 0kts
01-Sep-20 19:54 33.947219 -118.403530 227 135ft 0kts
01-Sep-20 19:55 33.947219 -118.403530 227 135ft 0kts
01-Sep-20 19:56 33.947219 -118.403530 227 135ft 0kts
01-Sep-20 19:57 33.947219 -118.403530 227 135ft 0kts
01-Sep-20 19:58 33.947224 -118.403524 227 135ft 1kts
01-Sep-20 19:59 33.947461 -118.402905 292 135ft 1kts
01-Sep-20 20:00 33.947158 -118.402765 355 135ft 0kts
01-Sep-20 20:01 33.947158 -118.402765 355 135ft 0kts
01-Sep-20 20:02 33.947158 -118.402765 355 135ft 0kts
01-Sep-20 20:03 33.947158 -118.402765 355 135ft 0kts
01-Sep-20 20:04 33.947158 -118.402765 355 135ft 0kts
01-Sep-20 20:05 33.947158 -118.402765 355 135ft 0kts
01-Sep-20 20:06 33.947158 -118.402765 355 135ft 0kts
01-Sep-20 20:07 33.947158 -118.402765 355 135ft 0kts
01-Sep-20 20:08 33.948023 -118.402825 8 135ft 1kts
01-Sep-20 20:09 33.948380 -118.401073 75 135ft 3kts
01-Sep-20 20:10 33.948676 -118.400926 1 135ft 0kts
01-Sep-20 20:11 33.950494 -118.400776 353 135ft 2kts
01-Sep-20 20:12 33.950503 -118.400777 353 135ft 0kts
01-Sep-20 20:13 33.949909 -118.400639 184 135ft 14kts
01-Sep-20 20:14 33.949439 -118.401730 345 135ft 0kts
01-Sep-20 20:15 33.949661 -118.401787 347 135ft 5kts
01-Sep-20 20:16 33.950150 -118.402316 264 135ft 0kts
01-Sep-20 20:17 33.947777 -118.425642 262 263ft 169kts
01-Sep-20 20:18 33.941710 -118.481723 262 3556ft 174kts
01-Sep-20 20:19 33.934124 -118.550908 262 4826ft 251kts
01-Sep-20 20:20 33.889648 -118.636171 204 5030ft 369kts
01-Sep-20 20:21 33.814601 -118.603618 110 9388ft 283kts
01-Sep-20 20:22 33.851814 -118.526403 26 10441ft 318kts
01-Sep-20 20:23 33.918206 -118.452209 63 11496ft 354kts
01-Sep-20 20:24 33.973690 -118.351091 53 13458ft 368kts
01-Sep-20 20:25 34.036369 -118.251698 54 15659ft 377kts
01-Sep-20 20:26 34.097571 -118.146838 56 17858ft 387kts
01-Sep-20 20:27 34.158879 -118.037425 57 19844ft 399kts
01-Sep-20 20:28 34.198001 -117.914384 91 21627ft 408kts
01-Sep-20 20:29 34.254932 -117.798552 41 23235ft 427kts
01-Sep-20 20:30 34.342082 -117.699534 51 24698ft 434kts
01-Sep-20 20:31 34.416609 -117.583714 55 26056ft 441kts
01-Sep-20 20:32 34.488479 -117.461659 55 27586ft 441kts
01-Sep-20 20:33 34.559579 -117.341646 55 29192ft 438kts
01-Sep-20 20:35 34.630396 -117.221708 55 30718ft 434kts
01-Sep-20 20:36 34.700375 -117.102616 55 32041ft 432kts
01-Sep-20 20:37 34.769748 -116.984010 55 33010ft 432kts
01-Sep-20 20:38 34.838436 -116.866240 55 32970ft 421kts
01-Sep-20 20:39 34.906398 -116.749511 55 32958ft 422kts
01-Sep-20 20:40 34.981616 -116.640318 47 32965ft 422kts
01-Sep-20 20:41 35.063824 -116.536762 47 32976ft 423kts
01-Sep-20 20:42 35.144795 -116.432525 48 32982ft 422kts
01-Sep-20 20:43 35.223858 -116.327075 48 32984ft 422kts
01-Sep-20 20:44 35.303114 -116.221017 48 32987ft 422kts
01-Sep-20 20:45 35.382551 -116.115003 48 32979ft 422kts
01-Sep-20 20:46 35.461944 -116.008943 47 32980ft 421kts
01-Sep-20 20:47 35.540932 -115.902834 48 32986ft 420kts
01-Sep-20 20:48 35.619390 -115.795898 48 32989ft 421kts
01-Sep-20 20:49 35.697839 -115.688740 48 32995ft 421kts
01-Sep-20 20:50 35.775918 -115.581048 48 33001ft 421kts
01-Sep-20 20:51 35.854397 -115.472743 48 33010ft 422kts
01-Sep-20 20:51 35.919122 -115.383315 48 33017ft 422kts
01-Sep-20 20:53 36.009771 -115.255808 48 33010ft 421kts
01-Sep-20 20:53 36.074130 -115.166368 50 32985ft 420kts
01-Sep-20 20:54 36.123438 -115.036108 71 32972ft 422kts
01-Sep-20 20:56 36.165284 -114.874448 69 32961ft 421kts
01-Sep-20 20:56 36.199189 -114.760951 68 32963ft 421kts
01-Sep-20 20:57 36.241387 -114.626299 68 32988ft 420kts
01-Sep-20 20:58 36.283495 -114.490564 68 33013ft 420kts
01-Sep-20 20:59 36.325367 -114.355662 68 33021ft 421kts
01-Sep-20 21:00 36.366685 -114.219780 68 33026ft 420kts
01-Sep-20 21:01 36.407165 -114.083146 68 33031ft 420kts
01-Sep-20 21:02 36.447907 -113.947465 68 33034ft 420kts
01-Sep-20 21:03 36.488661 -113.811443 68 33055ft 420kts
01-Sep-20 21:04 36.529116 -113.674546 68 33069ft 420kts
01-Sep-20 21:05 36.569126 -113.538102 68 33112ft 420kts
01-Sep-20 21:06 36.609344 -113.401670 68 33136ft 420kts
01-Sep-20 21:07 36.649248 -113.264471 68 33152ft 420kts
01-Sep-20 21:08 36.687755 -113.127527 68 33171ft 420kts
01-Sep-20 21:09 36.727338 -112.990485 67 33193ft 420kts
01-Sep-20 21:10 36.767446 -112.852909 67 33211ft 421kts
01-Sep-20 21:11 36.805977 -112.714998 68 33214ft 420kts
01-Sep-20 21:12 36.845054 -112.577446 67 33216ft 421kts
01-Sep-20 21:13 36.884236 -112.440549 67 33222ft 420kts
01-Sep-20 21:14 36.922393 -112.302505 67 33230ft 420kts
01-Sep-20 21:15 36.961397 -112.164280 67 33228ft 420kts
01-Sep-20 21:16 36.999860 -112.026073 67 33186ft 421kts
01-Sep-20 21:17 37.037966 -111.888015 67 33193ft 420kts
01-Sep-20 21:18 37.076364 -111.749593 67 33169ft 421kts
01-Sep-20 21:19 37.114759 -111.610330 67 33147ft 421kts
01-Sep-20 21:20 37.152424 -111.471440 67 33140ft 421kts
01-Sep-20 21:21 37.190209 -111.332581 68 33140ft 421kts
01-Sep-20 21:22 37.228588 -111.194326 63 33152ft 419kts
01-Sep-20 21:23 37.280543 -111.063899 58 33165ft 417kts
01-Sep-20 21:24 37.334418 -110.934858 59 33177ft 417kts
01-Sep-20 21:25 37.386844 -110.803757 60 33188ft 417kts
01-Sep-20 21:26 37.438424 -110.672926 60 33188ft 417kts
01-Sep-20 21:27 37.489387 -110.541442 60 33199ft 418kts
01-Sep-20 21:28 37.540469 -110.410074 60 33214ft 417kts
01-Sep-20 21:29 37.591621 -110.278630 60 33229ft 418kts
01-Sep-20 21:30 37.642367 -110.146857 60 33237ft 417kts
01-Sep-20 21:31 37.692792 -110.015569 60 33253ft 418kts
01-Sep-20 21:32 37.743552 -109.883031 60 33267ft 417kts
01-Sep-20 21:33 37.794213 -109.750874 60 33277ft 417kts
01-Sep-20 21:34 37.844322 -109.618742 60 33296ft 416kts
01-Sep-20 21:35 37.894306 -109.486503 60 33295ft 416kts
01-Sep-20 21:36 37.944140 -109.354914 60 33288ft 416kts
01-Sep-20 21:37 37.992897 -109.221666 61 33283ft 416kts
01-Sep-20 21:38 38.041985 -109.088605 60 33247ft 417kts
01-Sep-20 21:39 38.092996 -108.956200 59 33236ft 416kts
01-Sep-20 21:40 38.143985 -108.824350 59 33236ft 415kts
01-Sep-20 21:41 38.195277 -108.693141 58 33361ft 414kts
01-Sep-20 21:42 38.246836 -108.562296 58 33370ft 415kts
01-Sep-20 21:43 38.298169 -108.431224 59 33323ft 412kts
01-Sep-20 21:44 38.349024 -108.299677 59 33315ft 413kts
01-Sep-20 21:45 38.392814 -108.186171 59 33305ft 414kts
01-Sep-20 21:46 38.443613 -108.054620 59 33288ft 413kts
01-Sep-20 21:47 38.493505 -107.923138 59 33277ft 412kts
01-Sep-20 21:48 38.543257 -107.791050 59 33275ft 412kts
01-Sep-20 21:49 38.593018 -107.658982 59 33278ft 413kts
01-Sep-20 21:50 38.642553 -107.526928 59 33290ft 413kts
01-Sep-20 21:51 38.692782 -107.394523 59 33311ft 412kts
01-Sep-20 21:52 38.742501 -107.262043 59 33331ft 412kts
01-Sep-20 21:53 38.792085 -107.130232 59 33347ft 412kts
01-Sep-20 21:54 38.842214 -106.997429 59 33359ft 411kts
01-Sep-20 21:55 38.891372 -106.865586 59 33386ft 410kts
01-Sep-20 21:56 38.940770 -106.732414 59 33426ft 411kts
01-Sep-20 21:57 38.990011 -106.599878 59 33443ft 411kts
01-Sep-20 21:58 39.038451 -106.466640 60 33464ft 411kts
01-Sep-20 21:59 39.086322 -106.332718 60 33482ft 412kts
01-Sep-20 22:00 39.136335 -106.195321 60 31028ft 430kts
01-Sep-20 22:01 39.186484 -106.058234 60 28245ft 413kts
01-Sep-20 22:02 39.233765 -105.926043 61 25678ft 395kts
01-Sep-20 22:03 39.279255 -105.799676 61 23137ft 381kts
01-Sep-20 22:04 39.323477 -105.677542 60 20616ft 370kts
01-Sep-20 22:05 39.364982 -105.563446 60 19783ft 348kts
01-Sep-20 22:06 39.407500 -105.447092 60 19474ft 336kts
01-Sep-20 22:07 39.451350 -105.353367 49 19170ft 306kts
01-Sep-20 22:08 39.503633 -105.261347 50 18163ft 316kts
01-Sep-20 22:09 39.553306 -105.170964 50 16576ft 295kts
01-Sep-20 22:10 39.600258 -105.084374 51 16074ft 313kts
01-Sep-20 22:11 39.649158 -104.993366 51 15456ft 306kts
01-Sep-20 22:12 39.697436 -104.902856 52 15049ft 304kts
01-Sep-20 22:13 39.748557 -104.831570 9 14576ft 268kts
01-Sep-20 22:14 39.827596 -104.832914 356 13006ft 281kts
01-Sep-20 22:15 39.905731 -104.838735 356 11297ft 279kts
01-Sep-20 22:16 39.981896 -104.844368 356 9784ft 266kts
01-Sep-20 22:17 40.053273 -104.849685 356 8452ft 248kts
01-Sep-20 22:18 40.119923 -104.854613 356 8012ft 233kts
01-Sep-20 22:19 40.162263 -104.805765 75 7966ft 229kts
01-Sep-20 22:20 40.173598 -104.724991 93 7066ft 224kts
01-Sep-20 22:21 40.134009 -104.672296 155 7014ft 209kts
01-Sep-20 22:22 40.077892 -104.662771 186 6941ft 201kts
01-Sep-20 22:23 40.021666 -104.680585 197 7019ft 208kts
01-Sep-20 22:24 39.967867 -104.686355 178 6853ft 183kts
01-Sep-20 22:25 39.921746 -104.686483 179 5986ft 155kts
01-Sep-20 22:26 39.882711 -104.687022 180 5443ft 70kts
01-Sep-20 22:27 39.872682 -104.686036 151 5443ft 3kts
01-Sep-20 22:28 39.871462 -104.685205 152 5443ft 7kts
01-Sep-20 22:29 39.871135 -104.682656 89 5443ft 5kts
01-Sep-20 22:30 39.871131 -104.679444 90 5443ft 13kts

Navigation Log

Ident Type
Flight plan parsing failed, navigation log unavailable